sensor_id;sensor_type;location;lat;lon;timestamp;temperature;humidity
42227;DHT22;27892;52.378;13.122;2023-06-19T00:02:10;20.80;66.30
42227;DHT22;27892;52.378;13.122;2023-06-19T00:04:35;20.80;66.50
42227;DHT22;27892;52.378;13.122;2023-06-19T00:07:03;20.80;66.90
42227;DHT22;27892;52.378;13.122;2023-06-19T00:09:29;20.80;67.10
42227;DHT22;27892;52.378;13.122;2023-06-19T00:11:55;20.90;67.00
42227;DHT22;27892;52.378;13.122;2023-06-19T00:14:20;20.90;67.00
42227;DHT22;27892;52.378;13.122;2023-06-19T00:16:46;21.00;66.90
42227;DHT22;27892;52.378;13.122;2023-06-19T00:19:12;20.90;67.10
42227;DHT22;27892;52.378;13.122;2023-06-19T00:21:38;20.90;67.50
42227;DHT22;27892;52.378;13.122;2023-06-19T00:24:04;21.00;67.20
42227;DHT22;27892;52.378;13.122;2023-06-19T00:26:30;21.00;67.20
42227;DHT22;27892;52.378;13.122;2023-06-19T00:28:56;21.10;67.40
42227;DHT22;27892;52.378;13.122;2023-06-19T00:31:22;21.10;67.50
42227;DHT22;27892;52.378;13.122;2023-06-19T00:33:48;21.10;67.40
42227;DHT22;27892;52.378;13.122;2023-06-19T00:36:15;21.10;67.20
42227;DHT22;27892;52.378;13.122;2023-06-19T00:38:42;21.10;67.20
42227;DHT22;27892;52.378;13.122;2023-06-19T00:41:08;21.10;67.40
42227;DHT22;27892;52.378;13.122;2023-06-19T00:43:34;21.00;67.80
42227;DHT22;27892;52.378;13.122;2023-06-19T00:46:01;21.00;67.10
42227;DHT22;27892;52.378;13.122;2023-06-19T00:48:28;20.90;67.30
42227;DHT22;27892;52.378;13.122;2023-06-19T00:50:55;20.90;67.40
42227;DHT22;27892;52.378;13.122;2023-06-19T00:53:22;20.80;67.40
42227;DHT22;27892;52.378;13.122;2023-06-19T00:55:48;20.80;67.60
42227;DHT22;27892;52.378;13.122;2023-06-19T00:58:17;20.80;67.60
42227;DHT22;27892;52.378;13.122;2023-06-19T01:00:43;20.70;67.60
42227;DHT22;27892;52.378;13.122;2023-06-19T01:03:09;20.70;67.90
42227;DHT22;27892;52.378;13.122;2023-06-19T01:05:34;20.60;67.70
42227;DHT22;27892;52.378;13.122;2023-06-19T01:08:03;20.60;67.60
42227;DHT22;27892;52.378;13.122;2023-06-19T01:10:51;20.50;67.70
42227;DHT22;27892;52.378;13.122;2023-06-19T01:13:34;20.50;68.10
42227;DHT22;27892;52.378;13.122;2023-06-19T01:16:03;20.50;68.10
42227;DHT22;27892;52.378;13.122;2023-06-19T01:18:31;20.40;68.40
42227;DHT22;27892;52.378;13.122;2023-06-19T01:21:08;20.40;69.70
42227;DHT22;27892;52.378;13.122;2023-06-19T01:23:34;20.40;68.80
42227;DHT22;27892;52.378;13.122;2023-06-19T01:26:00;20.40;68.60
42227;DHT22;27892;52.378;13.122;2023-06-19T01:28:25;20.50;68.60
42227;DHT22;27892;52.378;13.122;2023-06-19T01:30:52;20.50;68.40
42227;DHT22;27892;52.378;13.122;2023-06-19T01:33:23;20.50;68.60
42227;DHT22;27892;52.378;13.122;2023-06-19T01:35:52;20.50;68.80
42227;DHT22;27892;52.378;13.122;2023-06-19T01:38:20;20.50;68.80
42227;DHT22;27892;52.378;13.122;2023-06-19T01:40:48;20.60;68.60
42227;DHT22;27892;52.378;13.122;2023-06-19T01:43:16;20.60;68.60
42227;DHT22;27892;52.378;13.122;2023-06-19T01:45:42;20.60;68.60
42227;DHT22;27892;52.378;13.122;2023-06-19T01:48:08;20.60;68.80
42227;DHT22;27892;52.378;13.122;2023-06-19T01:50:34;20.60;69.00
42227;DHT22;27892;52.378;13.122;2023-06-19T01:53:00;20.60;69.20
42227;DHT22;27892;52.378;13.122;2023-06-19T01:55:26;20.60;69.30
42227;DHT22;27892;52.378;13.122;2023-06-19T01:57:52;20.60;69.20
42227;DHT22;27892;52.378;13.122;2023-06-19T02:00:18;20.60;69.00
42227;DHT22;27892;52.378;13.122;2023-06-19T02:02:43;20.60;69.30
42227;DHT22;27892;52.378;13.122;2023-06-19T02:05:09;20.60;69.60
42227;DHT22;27892;52.378;13.122;2023-06-19T02:07:35;20.60;69.70
42227;DHT22;27892;52.378;13.122;2023-06-19T02:10:01;20.70;69.70
42227;DHT22;27892;52.378;13.122;2023-06-19T02:12:26;20.70;69.70
42227;DHT22;27892;52.378;13.122;2023-06-19T02:14:52;20.70;69.60
42227;DHT22;27892;52.378;13.122;2023-06-19T02:17:18;20.70;69.70
42227;DHT22;27892;52.378;13.122;2023-06-19T02:19:43;20.70;70.00
42227;DHT22;27892;52.378;13.122;2023-06-19T02:22:09;20.70;70.10
42227;DHT22;27892;52.378;13.122;2023-06-19T02:24:35;20.70;69.90
42227;DHT22;27892;52.378;13.122;2023-06-19T02:27:02;20.70;69.80
42227;DHT22;27892;52.378;13.122;2023-06-19T02:29:28;20.70;69.40
42227;DHT22;27892;52.378;13.122;2023-06-19T02:31:55;20.80;69.40
42227;DHT22;27892;52.378;13.122;2023-06-19T02:34:21;20.80;69.30
42227;DHT22;27892;52.378;13.122;2023-06-19T02:36:50;20.80;69.50
42227;DHT22;27892;52.378;13.122;2023-06-19T02:39:15;20.80;69.70
42227;DHT22;27892;52.378;13.122;2023-06-19T02:41:41;20.70;69.70
42227;DHT22;27892;52.378;13.122;2023-06-19T02:44:14;20.80;70.00
42227;DHT22;27892;52.378;13.122;2023-06-19T02:46:40;20.80;69.80
42227;DHT22;27892;52.378;13.122;2023-06-19T02:49:06;20.90;70.00
42227;DHT22;27892;52.378;13.122;2023-06-19T02:51:31;20.90;69.80
42227;DHT22;27892;52.378;13.122;2023-06-19T02:53:57;20.90;69.50
42227;DHT22;27892;52.378;13.122;2023-06-19T02:56:24;21.00;69.10
42227;DHT22;27892;52.378;13.122;2023-06-19T02:58:50;21.00;69.20
42227;DHT22;27892;52.378;13.122;2023-06-19T03:01:16;21.10;69.10
42227;DHT22;27892;52.378;13.122;2023-06-19T03:03:41;21.10;68.40
42227;DHT22;27892;52.378;13.122;2023-06-19T03:06:08;21.20;69.00
42227;DHT22;27892;52.378;13.122;2023-06-19T03:08:35;21.20;68.20
42227;DHT22;27892;52.378;13.122;2023-06-19T03:11:00;21.20;68.40
42227;DHT22;27892;52.378;13.122;2023-06-19T03:13:31;21.30;68.30
42227;DHT22;27892;52.378;13.122;2023-06-19T03:15:57;21.30;68.40
42227;DHT22;27892;52.378;13.122;2023-06-19T03:18:22;21.30;68.20
42227;DHT22;27892;52.378;13.122;2023-06-19T03:20:48;21.30;68.00
42227;DHT22;27892;52.378;13.122;2023-06-19T03:23:14;21.40;68.00
42227;DHT22;27892;52.378;13.122;2023-06-19T03:25:39;21.40;67.90
42227;DHT22;27892;52.378;13.122;2023-06-19T03:28:08;21.40;68.00
42227;DHT22;27892;52.378;13.122;2023-06-19T03:30:34;21.40;67.90
42227;DHT22;27892;52.378;13.122;2023-06-19T03:32:59;21.50;68.10
42227;DHT22;27892;52.378;13.122;2023-06-19T03:35:25;21.50;68.20
42227;DHT22;27892;52.378;13.122;2023-06-19T03:37:50;21.50;68.20
42227;DHT22;27892;52.378;13.122;2023-06-19T03:40:16;21.60;68.30
42227;DHT22;27892;52.378;13.122;2023-06-19T03:42:42;21.60;68.10
42227;DHT22;27892;52.378;13.122;2023-06-19T03:45:08;21.60;68.10
42227;DHT22;27892;52.378;13.122;2023-06-19T03:47:34;21.60;68.10
42227;DHT22;27892;52.378;13.122;2023-06-19T03:49:59;21.60;68.70
42227;DHT22;27892;52.378;13.122;2023-06-19T03:52:25;21.70;68.80
42227;DHT22;27892;52.378;13.122;2023-06-19T03:54:50;21.70;68.60
42227;DHT22;27892;52.378;13.122;2023-06-19T03:57:16;21.70;68.40
42227;DHT22;27892;52.378;13.122;2023-06-19T03:59:42;21.70;68.20
42227;DHT22;27892;52.378;13.122;2023-06-19T04:02:07;21.70;68.40
42227;DHT22;27892;52.378;13.122;2023-06-19T04:04:33;21.70;67.60
42227;DHT22;27892;52.378;13.122;2023-06-19T04:06:59;21.70;68.00
42227;DHT22;27892;52.378;13.122;2023-06-19T04:09:25;21.80;67.90
42227;DHT22;27892;52.378;13.122;2023-06-19T04:11:50;21.80;66.50
42227;DHT22;27892;52.378;13.122;2023-06-19T04:14:16;21.90;65.90
42227;DHT22;27892;52.378;13.122;2023-06-19T04:16:42;22.00;65.80
42227;DHT22;27892;52.378;13.122;2023-06-19T04:19:07;22.00;66.20
42227;DHT22;27892;52.378;13.122;2023-06-19T04:21:33;22.10;66.40
42227;DHT22;27892;52.378;13.122;2023-06-19T04:23:59;22.10;65.20
42227;DHT22;27892;52.378;13.122;2023-06-19T04:26:25;22.10;64.40
42227;DHT22;27892;52.378;13.122;2023-06-19T04:28:50;22.10;64.60
42227;DHT22;27892;52.378;13.122;2023-06-19T04:31:16;22.20;64.30
42227;DHT22;27892;52.378;13.122;2023-06-19T04:33:44;22.20;63.20
42227;DHT22;27892;52.378;13.122;2023-06-19T04:36:10;22.20;63.70
42227;DHT22;27892;52.378;13.122;2023-06-19T04:38:36;22.20;64.40
42227;DHT22;27892;52.378;13.122;2023-06-19T04:41:02;22.30;65.00
42227;DHT22;27892;52.378;13.122;2023-06-19T04:43:27;22.30;63.90
42227;DHT22;27892;52.378;13.122;2023-06-19T04:45:53;22.30;63.50
42227;DHT22;27892;52.378;13.122;2023-06-19T04:48:19;22.40;64.40
42227;DHT22;27892;52.378;13.122;2023-06-19T04:50:44;22.40;62.90
42227;DHT22;27892;52.378;13.122;2023-06-19T04:53:10;22.50;63.30
42227;DHT22;27892;52.378;13.122;2023-06-19T04:55:35;22.50;63.70
42227;DHT22;27892;52.378;13.122;2023-06-19T04:58:01;22.50;63.50
42227;DHT22;27892;52.378;13.122;2023-06-19T05:00:27;22.50;62.80
42227;DHT22;27892;52.378;13.122;2023-06-19T05:02:52;22.50;62.40
42227;DHT22;27892;52.378;13.122;2023-06-19T05:05:18;22.60;62.70
42227;DHT22;27892;52.378;13.122;2023-06-19T05:07:44;22.60;63.30
42227;DHT22;27892;52.378;13.122;2023-06-19T05:10:11;22.60;63.60
42227;DHT22;27892;52.378;13.122;2023-06-19T05:12:36;22.70;63.90
42227;DHT22;27892;52.378;13.122;2023-06-19T05:15:02;22.70;64.00
42227;DHT22;27892;52.378;13.122;2023-06-19T05:17:28;22.70;63.80
42227;DHT22;27892;52.378;13.122;2023-06-19T05:19:54;22.70;63.60
42227;DHT22;27892;52.378;13.122;2023-06-19T05:22:20;22.80;63.60
42227;DHT22;27892;52.378;13.122;2023-06-19T05:24:47;22.70;63.40
42227;DHT22;27892;52.378;13.122;2023-06-19T05:27:12;22.70;63.40
42227;DHT22;27892;52.378;13.122;2023-06-19T05:29:38;22.80;63.00
42227;DHT22;27892;52.378;13.122;2023-06-19T05:32:04;22.80;63.70
42227;DHT22;27892;52.378;13.122;2023-06-19T05:34:30;22.90;63.20
42227;DHT22;27892;52.378;13.122;2023-06-19T05:36:56;22.90;62.90
42227;DHT22;27892;52.378;13.122;2023-06-19T05:39:22;22.90;62.60
42227;DHT22;27892;52.378;13.122;2023-06-19T05:41:47;22.90;62.60
42227;DHT22;27892;52.378;13.122;2023-06-19T05:44:13;23.00;61.90
42227;DHT22;27892;52.378;13.122;2023-06-19T05:46:42;23.00;61.20
42227;DHT22;27892;52.378;13.122;2023-06-19T05:49:08;23.00;60.30
42227;DHT22;27892;52.378;13.122;2023-06-19T05:51:34;23.10;60.70
42227;DHT22;27892;52.378;13.122;2023-06-19T05:53:59;23.20;60.40
42227;DHT22;27892;52.378;13.122;2023-06-19T05:56:33;23.30;60.80
42227;DHT22;27892;52.378;13.122;2023-06-19T05:59:02;23.50;61.20
42227;DHT22;27892;52.378;13.122;2023-06-19T06:01:29;23.50;59.90
42227;DHT22;27892;52.378;13.122;2023-06-19T06:03:55;23.60;60.40
42227;DHT22;27892;52.378;13.122;2023-06-19T06:06:22;23.70;59.70
42227;DHT22;27892;52.378;13.122;2023-06-19T06:08:48;23.70;59.80
42227;DHT22;27892;52.378;13.122;2023-06-19T06:11:14;23.80;59.40
42227;DHT22;27892;52.378;13.122;2023-06-19T06:13:40;23.80;58.70
42227;DHT22;27892;52.378;13.122;2023-06-19T06:16:05;23.80;58.60
42227;DHT22;27892;52.378;13.122;2023-06-19T06:18:31;23.80;57.90
42227;DHT22;27892;52.378;13.122;2023-06-19T06:20:56;23.80;57.70
42227;DHT22;27892;52.378;13.122;2023-06-19T06:23:24;23.80;57.70
42227;DHT22;27892;52.378;13.122;2023-06-19T06:25:50;23.70;57.30
42227;DHT22;27892;52.378;13.122;2023-06-19T06:28:16;23.80;57.60
42227;DHT22;27892;52.378;13.122;2023-06-19T06:30:43;23.80;57.40
42227;DHT22;27892;52.378;13.122;2023-06-19T06:33:08;23.90;57.60
42227;DHT22;27892;52.378;13.122;2023-06-19T06:35:34;24.10;57.70
42227;DHT22;27892;52.378;13.122;2023-06-19T06:38:01;24.30;57.90
42227;DHT22;27892;52.378;13.122;2023-06-19T06:40:27;24.50;57.30
42227;DHT22;27892;52.378;13.122;2023-06-19T06:42:53;24.60;57.20
42227;DHT22;27892;52.378;13.122;2023-06-19T06:45:19;24.60;56.30
42227;DHT22;27892;52.378;13.122;2023-06-19T06:47:45;24.50;55.80
42227;DHT22;27892;52.378;13.122;2023-06-19T06:50:10;24.60;56.00
42227;DHT22;27892;52.378;13.122;2023-06-19T06:52:37;24.50;55.40
42227;DHT22;27892;52.378;13.122;2023-06-19T06:55:03;24.60;55.40
42227;DHT22;27892;52.378;13.122;2023-06-19T06:57:29;24.80;55.60
42227;DHT22;27892;52.378;13.122;2023-06-19T06:59:55;24.90;55.40
42227;DHT22;27892;52.378;13.122;2023-06-19T07:02:20;25.10;55.30
42227;DHT22;27892;52.378;13.122;2023-06-19T07:04:46;25.20;55.20
42227;DHT22;27892;52.378;13.122;2023-06-19T07:07:11;25.30;54.70
42227;DHT22;27892;52.378;13.122;2023-06-19T07:09:37;25.30;54.50
42227;DHT22;27892;52.378;13.122;2023-06-19T07:12:03;25.30;54.60
42227;DHT22;27892;52.378;13.122;2023-06-19T07:14:30;25.30;53.90
42227;DHT22;27892;52.378;13.122;2023-06-19T07:16:56;25.30;54.10
42227;DHT22;27892;52.378;13.122;2023-06-19T07:19:21;25.30;54.30
42227;DHT22;27892;52.378;13.122;2023-06-19T07:21:49;25.40;54.00
42227;DHT22;27892;52.378;13.122;2023-06-19T07:24:15;25.50;54.30
42227;DHT22;27892;52.378;13.122;2023-06-19T07:26:40;25.50;53.80
42227;DHT22;27892;52.378;13.122;2023-06-19T07:29:06;25.60;53.80
42227;DHT22;27892;52.378;13.122;2023-06-19T07:31:32;25.50;53.10
42227;DHT22;27892;52.378;13.122;2023-06-19T07:33:57;25.50;53.30
42227;DHT22;27892;52.378;13.122;2023-06-19T07:36:23;25.60;53.50
42227;DHT22;27892;52.378;13.122;2023-06-19T07:38:48;25.60;53.20
42227;DHT22;27892;52.378;13.122;2023-06-19T07:41:14;25.70;53.10
42227;DHT22;27892;52.378;13.122;2023-06-19T07:43:40;25.90;53.40
42227;DHT22;27892;52.378;13.122;2023-06-19T07:46:06;26.00;53.00
42227;DHT22;27892;52.378;13.122;2023-06-19T07:48:31;26.20;52.20
42227;DHT22;27892;52.378;13.122;2023-06-19T07:50:57;26.20;51.90
42227;DHT22;27892;52.378;13.122;2023-06-19T07:53:23;26.30;52.00
42227;DHT22;27892;52.378;13.122;2023-06-19T07:55:48;26.40;51.60
42227;DHT22;27892;52.378;13.122;2023-06-19T07:58:14;26.30;51.50
42227;DHT22;27892;52.378;13.122;2023-06-19T08:00:40;26.30;51.50
42227;DHT22;27892;52.378;13.122;2023-06-19T08:03:05;26.40;51.70
42227;DHT22;27892;52.378;13.122;2023-06-19T08:05:31;26.50;52.20
42227;DHT22;27892;52.378;13.122;2023-06-19T08:07:58;26.50;51.60
42227;DHT22;27892;52.378;13.122;2023-06-19T08:10:24;26.60;51.40
42227;DHT22;27892;52.378;13.122;2023-06-19T08:12:50;26.50;50.90
42227;DHT22;27892;52.378;13.122;2023-06-19T08:15:15;26.50;51.30
42227;DHT22;27892;52.378;13.122;2023-06-19T08:17:41;26.50;51.00
42227;DHT22;27892;52.378;13.122;2023-06-19T08:20:08;26.50;51.20
42227;DHT22;27892;52.378;13.122;2023-06-19T08:22:35;26.50;51.00
42227;DHT22;27892;52.378;13.122;2023-06-19T08:25:00;26.40;51.30
42227;DHT22;27892;52.378;13.122;2023-06-19T08:27:26;26.50;51.30
42227;DHT22;27892;52.378;13.122;2023-06-19T08:29:52;26.50;51.00
42227;DHT22;27892;52.378;13.122;2023-06-19T08:32:19;26.50;50.90
42227;DHT22;27892;52.378;13.122;2023-06-19T08:34:44;26.60;51.30
42227;DHT22;27892;52.378;13.122;2023-06-19T08:37:10;26.90;51.40
42227;DHT22;27892;52.378;13.122;2023-06-19T08:39:36;26.90;50.90
42227;DHT22;27892;52.378;13.122;2023-06-19T08:42:06;27.00;50.90
42227;DHT22;27892;52.378;13.122;2023-06-19T08:44:33;26.90;50.70
42227;DHT22;27892;52.378;13.122;2023-06-19T08:46:59;26.90;50.50
42227;DHT22;27892;52.378;13.122;2023-06-19T08:49:25;26.90;50.70
42227;DHT22;27892;52.378;13.122;2023-06-19T08:51:50;27.00;50.90
42227;DHT22;27892;52.378;13.122;2023-06-19T08:54:17;27.20;51.00
42227;DHT22;27892;52.378;13.122;2023-06-19T08:56:43;27.30;51.20
42227;DHT22;27892;52.378;13.122;2023-06-19T08:59:19;27.40;50.60
42227;DHT22;27892;52.378;13.122;2023-06-19T09:01:49;27.50;51.20
42227;DHT22;27892;52.378;13.122;2023-06-19T09:04:20;27.60;51.10
42227;DHT22;27892;52.378;13.122;2023-06-19T09:06:53;27.80;50.80
42227;DHT22;27892;52.378;13.122;2023-06-19T09:09:21;27.90;50.90
42227;DHT22;27892;52.378;13.122;2023-06-19T09:14:47;27.90;50.20
42227;DHT22;27892;52.378;13.122;2023-06-19T09:17:18;27.90;50.90
42227;DHT22;27892;52.378;13.122;2023-06-19T09:19:52;28.00;50.50
42227;DHT22;27892;52.378;13.122;2023-06-19T09:22:20;27.90;51.00
42227;DHT22;27892;52.378;13.122;2023-06-19T09:24:46;27.80;50.80
42227;DHT22;27892;52.378;13.122;2023-06-19T09:27:14;27.80;51.00
42227;DHT22;27892;52.378;13.122;2023-06-19T09:29:42;27.50;49.70
42227;DHT22;27892;52.378;13.122;2023-06-19T09:32:22;27.40;50.20
42227;DHT22;27892;52.378;13.122;2023-06-19T09:34:50;27.50;50.30
42227;DHT22;27892;52.378;13.122;2023-06-19T09:37:30;27.40;49.60
42227;DHT22;27892;52.378;13.122;2023-06-19T09:40:00;27.40;49.30
42227;DHT22;27892;52.378;13.122;2023-06-19T09:42:34;27.30;49.80
42227;DHT22;27892;52.378;13.122;2023-06-19T09:45:02;27.30;49.40
42227;DHT22;27892;52.378;13.122;2023-06-19T09:47:37;27.50;50.20
42227;DHT22;27892;52.378;13.122;2023-06-19T09:50:04;27.60;49.70
42227;DHT22;27892;52.378;13.122;2023-06-19T09:52:32;27.60;50.10
42227;DHT22;27892;52.378;13.122;2023-06-19T09:55:04;27.80;50.40
42227;DHT22;27892;52.378;13.122;2023-06-19T09:57:32;27.90;50.70
42227;DHT22;27892;52.378;13.122;2023-06-19T09:59:59;27.70;49.90
42227;DHT22;27892;52.378;13.122;2023-06-19T10:02:35;27.50;49.80
42227;DHT22;27892;52.378;13.122;2023-06-19T10:05:01;27.50;50.40
42227;DHT22;27892;52.378;13.122;2023-06-19T10:07:33;27.40;50.70
42227;DHT22;27892;52.378;13.122;2023-06-19T10:10:02;27.60;51.30
42227;DHT22;27892;52.378;13.122;2023-06-19T10:12:45;27.70;51.70
42227;DHT22;27892;52.378;13.122;2023-06-19T10:17:43;28.00;49.80
42227;DHT22;27892;52.378;13.122;2023-06-19T10:20:20;28.00;50.50
42227;DHT22;27892;52.378;13.122;2023-06-19T10:23:03;28.10;49.60
42227;DHT22;27892;52.378;13.122;2023-06-19T10:25:31;27.90;49.40
42227;DHT22;27892;52.378;13.122;2023-06-19T10:27:59;28.00;49.90
42227;DHT22;27892;52.378;13.122;2023-06-19T10:30:25;28.20;50.00
42227;DHT22;27892;52.378;13.122;2023-06-19T10:32:50;28.40;49.30
42227;DHT22;27892;52.378;13.122;2023-06-19T10:35:18;28.50;48.80
42227;DHT22;27892;52.378;13.122;2023-06-19T10:37:47;28.60;48.70
42227;DHT22;27892;52.378;13.122;2023-06-19T10:40:13;28.40;48.20
42227;DHT22;27892;52.378;13.122;2023-06-19T10:42:40;28.30;48.50
42227;DHT22;27892;52.378;13.122;2023-06-19T10:45:10;28.20;48.10
42227;DHT22;27892;52.378;13.122;2023-06-19T10:47:38;28.10;47.70
42227;DHT22;27892;52.378;13.122;2023-06-19T10:50:15;28.10;48.60
42227;DHT22;27892;52.378;13.122;2023-06-19T10:52:44;28.10;48.30
42227;DHT22;27892;52.378;13.122;2023-06-19T10:55:12;27.90;48.20
42227;DHT22;27892;52.378;13.122;2023-06-19T10:57:38;28.40;48.60
42227;DHT22;27892;52.378;13.122;2023-06-19T11:00:05;28.80;48.20
42227;DHT22;27892;52.378;13.122;2023-06-19T11:02:42;29.10;47.10
42227;DHT22;27892;52.378;13.122;2023-06-19T11:05:10;29.40;46.40
42227;DHT22;27892;52.378;13.122;2023-06-19T11:07:36;29.40;45.40
42227;DHT22;27892;52.378;13.122;2023-06-19T11:10:03;29.30;44.30
42227;DHT22;27892;52.378;13.122;2023-06-19T11:12:31;29.30;45.20
42227;DHT22;27892;52.378;13.122;2023-06-19T11:14:58;29.40;44.40
42227;DHT22;27892;52.378;13.122;2023-06-19T11:17:24;29.10;44.20
42227;DHT22;27892;52.378;13.122;2023-06-19T11:19:50;29.40;44.70
42227;DHT22;27892;52.378;13.122;2023-06-19T11:22:16;29.80;44.50
42227;DHT22;27892;52.378;13.122;2023-06-19T11:24:46;29.80;43.10
42227;DHT22;27892;52.378;13.122;2023-06-19T11:27:20;29.80;43.50
42227;DHT22;27892;52.378;13.122;2023-06-19T11:29:56;29.70;44.10
42227;DHT22;27892;52.378;13.122;2023-06-19T11:32:29;29.80;44.50
42227;DHT22;27892;52.378;13.122;2023-06-19T11:34:56;29.90;44.00
42227;DHT22;27892;52.378;13.122;2023-06-19T11:37:22;29.60;43.90
42227;DHT22;27892;52.378;13.122;2023-06-19T11:39:49;29.70;45.00
42227;DHT22;27892;52.378;13.122;2023-06-19T11:42:16;30.20;45.20
42227;DHT22;27892;52.378;13.122;2023-06-19T11:45:00;30.50;44.60
42227;DHT22;27892;52.378;13.122;2023-06-19T11:47:30;30.90;44.10
42227;DHT22;27892;52.378;13.122;2023-06-19T11:49:57;31.10;44.20
42227;DHT22;27892;52.378;13.122;2023-06-19T11:52:23;31.30;43.90
42227;DHT22;27892;52.378;13.122;2023-06-19T11:54:48;31.40;43.40
42227;DHT22;27892;52.378;13.122;2023-06-19T11:57:14;31.50;42.00
42227;DHT22;27892;52.378;13.122;2023-06-19T11:59:40;31.40;40.90
42227;DHT22;27892;52.378;13.122;2023-06-19T12:02:07;31.40;40.90
42227;DHT22;27892;52.378;13.122;2023-06-19T12:04:33;31.70;41.40
42227;DHT22;27892;52.378;13.122;2023-06-19T12:06:59;31.80;40.40
42227;DHT22;27892;52.378;13.122;2023-06-19T12:09:25;32.30;40.30
42227;DHT22;27892;52.378;13.122;2023-06-19T12:11:51;32.40;38.90
42227;DHT22;27892;52.378;13.122;2023-06-19T12:14:17;32.50;39.10
42227;DHT22;27892;52.378;13.122;2023-06-19T12:16:47;32.90;38.80
42227;DHT22;27892;52.378;13.122;2023-06-19T12:19:13;32.40;37.00
42227;DHT22;27892;52.378;13.122;2023-06-19T12:21:39;32.20;38.00
42227;DHT22;27892;52.378;13.122;2023-06-19T12:24:05;32.40;37.00
42227;DHT22;27892;52.378;13.122;2023-06-19T12:26:31;32.80;36.70
42227;DHT22;27892;52.378;13.122;2023-06-19T12:29:02;33.10;35.70
42227;DHT22;27892;52.378;13.122;2023-06-19T12:31:29;33.40;36.00
42227;DHT22;27892;52.378;13.122;2023-06-19T12:33:55;33.40;36.00
42227;DHT22;27892;52.378;13.122;2023-06-19T12:36:21;33.10;34.40
42227;DHT22;27892;52.378;13.122;2023-06-19T12:38:46;33.40;36.60
42227;DHT22;27892;52.378;13.122;2023-06-19T12:41:14;33.50;35.10
42227;DHT22;27892;52.378;13.122;2023-06-19T12:43:40;33.30;35.10
42227;DHT22;27892;52.378;13.122;2023-06-19T12:46:05;33.60;36.10
42227;DHT22;27892;52.378;13.122;2023-06-19T12:48:32;33.90;36.00
42227;DHT22;27892;52.378;13.122;2023-06-19T12:50:57;34.20;34.80
42227;DHT22;27892;52.378;13.122;2023-06-19T12:53:23;34.10;33.50
42227;DHT22;27892;52.378;13.122;2023-06-19T12:55:52;33.60;33.90
42227;DHT22;27892;52.378;13.122;2023-06-19T12:58:19;33.60;34.50
42227;DHT22;27892;52.378;13.122;2023-06-19T13:00:44;33.70;34.90
42227;DHT22;27892;52.378;13.122;2023-06-19T13:03:10;33.70;34.40
42227;DHT22;27892;52.378;13.122;2023-06-19T13:05:36;33.60;34.90
42227;DHT22;27892;52.378;13.122;2023-06-19T13:08:01;33.70;34.70
42227;DHT22;27892;52.378;13.122;2023-06-19T13:10:27;33.60;34.50
42227;DHT22;27892;52.378;13.122;2023-06-19T13:12:53;33.70;34.50
42227;DHT22;27892;52.378;13.122;2023-06-19T13:15:18;33.80;34.80
42227;DHT22;27892;52.378;13.122;2023-06-19T13:17:44;34.20;32.90
42227;DHT22;27892;52.378;13.122;2023-06-19T13:20:10;34.80;33.20
42227;DHT22;27892;52.378;13.122;2023-06-19T13:22:36;35.00;32.00
42227;DHT22;27892;52.378;13.122;2023-06-19T13:25:01;34.70;31.90
42227;DHT22;27892;52.378;13.122;2023-06-19T13:27:27;34.70;31.50
42227;DHT22;27892;52.378;13.122;2023-06-19T13:29:54;34.80;31.80
42227;DHT22;27892;52.378;13.122;2023-06-19T13:32:20;35.00;31.60
42227;DHT22;27892;52.378;13.122;2023-06-19T13:34:46;35.20;31.30
42227;DHT22;27892;52.378;13.122;2023-06-19T13:37:12;35.10;30.00
42227;DHT22;27892;52.378;13.122;2023-06-19T13:39:37;34.90;30.70
42227;DHT22;27892;52.378;13.122;2023-06-19T13:42:05;34.60;30.50
42227;DHT22;27892;52.378;13.122;2023-06-19T13:44:31;34.60;31.90
42227;DHT22;27892;52.378;13.122;2023-06-19T13:46:56;34.20;31.80
42227;DHT22;27892;52.378;13.122;2023-06-19T13:49:22;34.10;31.80
42227;DHT22;27892;52.378;13.122;2023-06-19T13:51:48;33.80;32.80
42227;DHT22;27892;52.378;13.122;2023-06-19T13:54:14;33.80;33.80
42227;DHT22;27892;52.378;13.122;2023-06-19T13:56:40;34.20;34.10
42227;DHT22;27892;52.378;13.122;2023-06-19T13:59:06;34.30;33.50
42227;DHT22;27892;52.378;13.122;2023-06-19T14:01:32;34.40;33.20
42227;DHT22;27892;52.378;13.122;2023-06-19T14:03:58;34.50;33.40
42227;DHT22;27892;52.378;13.122;2023-06-19T14:06:24;34.80;33.10
42227;DHT22;27892;52.378;13.122;2023-06-19T14:08:50;35.20;32.70
42227;DHT22;27892;52.378;13.122;2023-06-19T14:11:17;35.30;32.20
42227;DHT22;27892;52.378;13.122;2023-06-19T14:13:42;35.40;31.90
42227;DHT22;27892;52.378;13.122;2023-06-19T14:16:08;35.00;32.10
42227;DHT22;27892;52.378;13.122;2023-06-19T14:18:33;34.50;32.00
42227;DHT22;27892;52.378;13.122;2023-06-19T14:21:02;34.10;32.50
42227;DHT22;27892;52.378;13.122;2023-06-19T14:23:28;34.00;33.70
42227;DHT22;27892;52.378;13.122;2023-06-19T14:25:53;33.80;33.20
42227;DHT22;27892;52.378;13.122;2023-06-19T14:28:19;33.60;33.60
42227;DHT22;27892;52.378;13.122;2023-06-19T14:30:44;33.60;33.40
42227;DHT22;27892;52.378;13.122;2023-06-19T14:33:10;33.60;33.90
42227;DHT22;27892;52.378;13.122;2023-06-19T14:35:41;33.60;33.50
42227;DHT22;27892;52.378;13.122;2023-06-19T14:38:07;33.60;33.60
42227;DHT22;27892;52.378;13.122;2023-06-19T14:40:32;33.50;33.90
42227;DHT22;27892;52.378;13.122;2023-06-19T14:42:58;33.50;33.90
42227;DHT22;27892;52.378;13.122;2023-06-19T14:45:24;33.70;33.90
42227;DHT22;27892;52.378;13.122;2023-06-19T14:47:49;34.10;34.20
42227;DHT22;27892;52.378;13.122;2023-06-19T14:50:15;34.40;33.50
42227;DHT22;27892;52.378;13.122;2023-06-19T14:52:41;34.60;32.90
42227;DHT22;27892;52.378;13.122;2023-06-19T14:55:07;34.70;32.50
42227;DHT22;27892;52.378;13.122;2023-06-19T14:57:32;34.50;31.70
42227;DHT22;27892;52.378;13.122;2023-06-19T14:59:58;34.40;31.20
42227;DHT22;27892;52.378;13.122;2023-06-19T15:02:24;34.30;31.90
42227;DHT22;27892;52.378;13.122;2023-06-19T15:04:49;34.10;31.80
42227;DHT22;27892;52.378;13.122;2023-06-19T15:07:15;34.00;32.30
42227;DHT22;27892;52.378;13.122;2023-06-19T15:09:40;33.90;32.30
42227;DHT22;27892;52.378;13.122;2023-06-19T15:12:06;33.70;32.80
42227;DHT22;27892;52.378;13.122;2023-06-19T15:14:32;33.80;32.90
42227;DHT22;27892;52.378;13.122;2023-06-19T15:16:59;34.00;32.30
42227;DHT22;27892;52.378;13.122;2023-06-19T15:19:24;34.00;33.90